Current Weather

Fort Good Hope

Fort Good Hope, Canada (CYGH)

Report from: Saturday, May 21, 2022 11:00 PM UTC
Current time: Sunday, May 22, 2022 8:37 AM UTC

Nearby weather
Weather history
Weather forecast

Temperature6.0°C (42.8°F)
Wind chill4.5°C (40.1°F)
Dew point1.0°C (33.8°F)
Winds 4 kts (2.1 m/s, 4.6 mph) Vrb
Winds variableWinds variable from North-Northeast (30°) to North-Northwest (330°)
Visibility15 mi. (24.1 km)
Clouds Ceiling: Overcast 2,600 ft. (792 m)
Altimeter30.31 in.Hg (1026 mB)
Relative humidity70 %
Density altitude-1,432 ft. (-436 m)
Sea-level pressure102.7 kPa (1027 mB, 30.33 in.Hg)
Remarks Last observation of the day
Flight conditions Marginal Visual Meteorological Conditions
Raw dataCYGH 212300Z 36004KT 330V030 15SM OVC026 06/01 A3031 RMK SC8 LAST STFD OBS/NXT 221300UTC SLP271
An error has occurred. This application may no longer respond until reloaded. Reload 🗙